Hanover, Illinois
Current Conditions -  °F | °C
As of 5:55 PM on Saturday 25 Oct 2014 (Local Time) from KSFY Reporting Station
Clear Clear  
Wind Chill: 67°   Ceiling: Unl
Heat Index: 67°   Visibility: 10mi
Dew Point: 31°   Wind: 9mph
Humidity: 26%   Direction: 290°WNW
Pressure: 29.98"   Gusts: NA
Location:  42.26°N, 90.28°W
Report Text: KSFY 252255Z AUTO 29008KT 10SM CLR 19/M01 A2998 RMK AO2 T01931006
Loading
Personal Weather Stations






























Interactive Weather Map New forecast layout! Learn more

10-Day Weather Forecast

Advertisements
Track Severe Weather on mobile